sensor_id;sensor_type;location;lat;lon;timestamp;pressure;altitude;pressure_sealevel;temperature;humidity
50302;BME280;36550;50.472;19.744;2023-02-05T00:00:40;99677.20;;;-4.24;91.39
50302;BME280;36550;50.472;19.744;2023-02-05T00:03:24;99676.98;;;-4.24;91.26
50302;BME280;36550;50.472;19.744;2023-02-05T00:06:08;99680.05;;;-4.23;91.25
50302;BME280;36550;50.472;19.744;2023-02-05T00:08:52;99679.16;;;-4.23;91.21
50302;BME280;36550;50.472;19.744;2023-02-05T00:11:36;99678.29;;;-4.20;91.20
50302;BME280;36550;50.472;19.744;2023-02-05T00:14:20;99681.84;;;-4.14;90.94
50302;BME280;36550;50.472;19.744;2023-02-05T00:17:03;99682.38;;;-4.12;90.79
50302;BME280;36550;50.472;19.744;2023-02-05T00:19:47;99689.48;;;-4.08;90.68
50302;BME280;36550;50.472;19.744;2023-02-05T00:22:31;99689.19;;;-4.09;90.61
50302;BME280;36550;50.472;19.744;2023-02-05T00:25:15;99695.08;;;-4.10;90.57
50302;BME280;36550;50.472;19.744;2023-02-05T00:27:59;99702.20;;;-4.17;90.54
50302;BME280;36550;50.472;19.744;2023-02-05T00:30:43;99701.45;;;-4.19;90.53
50302;BME280;36550;50.472;19.744;2023-02-05T00:33:27;99704.69;;;-4.18;90.25
50302;BME280;36550;50.472;19.744;2023-02-05T00:36:12;99700.66;;;-4.17;90.06
50302;BME280;36550;50.472;19.744;2023-02-05T00:38:56;99701.02;;;-4.17;89.93
50302;BME280;36550;50.472;19.744;2023-02-05T00:41:40;99701.45;;;-4.18;89.77
50302;BME280;36550;50.472;19.744;2023-02-05T00:44:24;99699.98;;;-4.22;89.63
50302;BME280;36550;50.472;19.744;2023-02-05T00:47:08;99699.67;;;-4.26;89.63
50302;BME280;36550;50.472;19.744;2023-02-05T00:49:51;99699.66;;;-4.30;89.49
50302;BME280;36550;50.472;19.744;2023-02-05T00:52:35;99702.95;;;-4.37;89.25
50302;BME280;36550;50.472;19.744;2023-02-05T00:55:19;99698.47;;;-4.47;88.86
50302;BME280;36550;50.472;19.744;2023-02-05T00:58:03;99701.91;;;-4.58;88.49
50302;BME280;36550;50.472;19.744;2023-02-05T01:00:48;99701.80;;;-4.70;88.11
50302;BME280;36550;50.472;19.744;2023-02-05T01:03:32;99705.17;;;-4.81;87.83
50302;BME280;36550;50.472;19.744;2023-02-05T01:06:16;99702.68;;;-4.85;87.51
50302;BME280;36550;50.472;19.744;2023-02-05T01:09:01;99704.61;;;-4.89;87.25
50302;BME280;36550;50.472;19.744;2023-02-05T01:11:45;99708.03;;;-4.92;87.15
50302;BME280;36550;50.472;19.744;2023-02-05T01:14:29;99704.49;;;-4.95;86.98
50302;BME280;36550;50.472;19.744;2023-02-05T01:17:13;99701.41;;;-4.98;86.85
50302;BME280;36550;50.472;19.744;2023-02-05T01:19:56;99701.34;;;-4.99;86.58
50302;BME280;36550;50.472;19.744;2023-02-05T01:22:40;99694.08;;;-5.03;86.39
50302;BME280;36550;50.472;19.744;2023-02-05T01:25:24;99693.68;;;-5.05;86.20
50302;BME280;36550;50.472;19.744;2023-02-05T01:28:08;99695.80;;;-5.10;86.01
50302;BME280;36550;50.472;19.744;2023-02-05T01:30:52;99698.92;;;-5.16;86.04
50302;BME280;36550;50.472;19.744;2023-02-05T01:33:37;99701.54;;;-5.22;85.89
50302;BME280;36550;50.472;19.744;2023-02-05T01:36:20;99710.42;;;-5.28;86.05
50302;BME280;36550;50.472;19.744;2023-02-05T01:39:04;99711.80;;;-5.35;86.01
50302;BME280;36550;50.472;19.744;2023-02-05T01:41:48;99710.30;;;-5.41;86.27
50302;BME280;36550;50.472;19.744;2023-02-05T01:44:32;99706.30;;;-5.45;86.37
50302;BME280;36550;50.472;19.744;2023-02-05T01:47:16;99703.74;;;-5.49;86.50
50302;BME280;36550;50.472;19.744;2023-02-05T01:49:59;99702.66;;;-5.53;86.55
50302;BME280;36550;50.472;19.744;2023-02-05T01:52:43;99704.45;;;-5.57;86.56
50302;BME280;36550;50.472;19.744;2023-02-05T01:55:28;99709.54;;;-5.63;86.60
50302;BME280;36550;50.472;19.744;2023-02-05T01:58:12;99707.92;;;-5.68;86.63
50302;BME280;36550;50.472;19.744;2023-02-05T02:00:57;99711.39;;;-5.71;86.66
50302;BME280;36550;50.472;19.744;2023-02-05T02:03:40;99709.52;;;-5.72;86.54
50302;BME280;36550;50.472;19.744;2023-02-05T02:06:24;99711.50;;;-5.70;86.40
50302;BME280;36550;50.472;19.744;2023-02-05T02:09:08;99716.83;;;-5.71;86.38
50302;BME280;36550;50.472;19.744;2023-02-05T02:11:52;99725.00;;;-5.71;86.03
50302;BME280;36550;50.472;19.744;2023-02-05T02:14:37;99724.77;;;-5.76;85.47
50302;BME280;36550;50.472;19.744;2023-02-05T02:17:22;99730.61;;;-5.83;85.03
50302;BME280;36550;50.472;19.744;2023-02-05T02:20:11;99732.40;;;-5.90;84.80
50302;BME280;36550;50.472;19.744;2023-02-05T02:31:17;99722.73;;;-6.15;84.35
50302;BME280;36550;50.472;19.744;2023-02-05T02:34:07;99721.92;;;-6.22;84.47
50302;BME280;36550;50.472;19.744;2023-02-05T02:43:13;99731.84;;;-6.29;84.61
50302;BME280;36550;50.472;19.744;2023-02-05T02:46:45;99736.05;;;-6.34;84.80
50302;BME280;36550;50.472;19.744;2023-02-05T02:49:04;99737.61;;;-6.32;84.91
50302;BME280;36550;50.472;19.744;2023-02-05T02:51:48;99739.81;;;-6.31;84.97
50302;BME280;36550;50.472;19.744;2023-02-05T02:54:34;99738.01;;;-6.29;85.07
50302;BME280;36550;50.472;19.744;2023-02-05T02:57:20;99739.34;;;-6.29;85.04
50302;BME280;36550;50.472;19.744;2023-02-05T03:00:08;99734.30;;;-6.30;85.11
50302;BME280;36550;50.472;19.744;2023-02-05T03:02:57;99737.33;;;-6.29;85.22
50302;BME280;36550;50.472;19.744;2023-02-05T03:05:43;99736.80;;;-6.29;85.26
50302;BME280;36550;50.472;19.744;2023-02-05T03:08:29;99736.23;;;-6.28;85.11
50302;BME280;36550;50.472;19.744;2023-02-05T03:11:15;99737.00;;;-6.30;85.11
50302;BME280;36550;50.472;19.744;2023-02-05T03:13:59;99740.86;;;-6.25;85.24
50302;BME280;36550;50.472;19.744;2023-02-05T03:16:43;99742.73;;;-6.25;85.22
50302;BME280;36550;50.472;19.744;2023-02-05T03:19:27;99740.42;;;-6.21;85.32
50302;BME280;36550;50.472;19.744;2023-02-05T03:22:11;99739.20;;;-6.17;85.39
50302;BME280;36550;50.472;19.744;2023-02-05T03:24:54;99744.27;;;-6.10;85.55
50302;BME280;36550;50.472;19.744;2023-02-05T03:27:38;99744.45;;;-6.04;85.71
50302;BME280;36550;50.472;19.744;2023-02-05T03:30:22;99741.73;;;-5.98;85.55
50302;BME280;36550;50.472;19.744;2023-02-05T03:33:24;99744.58;;;-5.92;85.49
50302;BME280;36550;50.472;19.744;2023-02-05T03:36:59;99746.61;;;-5.85;85.36
50302;BME280;36550;50.472;19.744;2023-02-05T03:39:22;99746.02;;;-5.81;85.31
50302;BME280;36550;50.472;19.744;2023-02-05T03:48:13;99736.48;;;-5.81;84.43
50302;BME280;36550;50.472;19.744;2023-02-05T03:56:34;99735.27;;;-5.95;83.29
50302;BME280;36550;50.472;19.744;2023-02-05T03:59:20;99734.59;;;-6.02;83.16
50302;BME280;36550;50.472;19.744;2023-02-05T04:02:04;99735.50;;;-6.06;83.06
50302;BME280;36550;50.472;19.744;2023-02-05T04:04:48;99734.13;;;-6.11;82.84
50302;BME280;36550;50.472;19.744;2023-02-05T04:07:32;99733.06;;;-6.17;82.67
50302;BME280;36550;50.472;19.744;2023-02-05T04:10:16;99732.33;;;-6.22;82.54
50302;BME280;36550;50.472;19.744;2023-02-05T04:13:00;99732.39;;;-6.30;82.33
50302;BME280;36550;50.472;19.744;2023-02-05T04:15:46;99736.73;;;-6.37;82.05
50302;BME280;36550;50.472;19.744;2023-02-05T04:18:30;99743.23;;;-6.44;81.90
50302;BME280;36550;50.472;19.744;2023-02-05T04:21:14;99747.33;;;-6.51;81.92
50302;BME280;36550;50.472;19.744;2023-02-05T04:23:58;99748.10;;;-6.55;81.87
50302;BME280;36550;50.472;19.744;2023-02-05T04:26:42;99749.15;;;-6.59;81.84
50302;BME280;36550;50.472;19.744;2023-02-05T04:29:25;99748.11;;;-6.65;81.66
50302;BME280;36550;50.472;19.744;2023-02-05T04:32:09;99746.39;;;-6.71;81.53
50302;BME280;36550;50.472;19.744;2023-02-05T04:34:53;99746.77;;;-6.72;81.68
50302;BME280;36550;50.472;19.744;2023-02-05T04:37:37;99747.56;;;-6.74;81.69
50302;BME280;36550;50.472;19.744;2023-02-05T04:40:21;99754.55;;;-6.78;81.36
50302;BME280;36550;50.472;19.744;2023-02-05T04:43:05;99758.68;;;-6.82;81.08
50302;BME280;36550;50.472;19.744;2023-02-05T04:45:48;99759.89;;;-6.86;80.71
50302;BME280;36550;50.472;19.744;2023-02-05T04:48:32;99755.69;;;-6.90;80.40
50302;BME280;36550;50.472;19.744;2023-02-05T04:51:16;99748.52;;;-6.86;80.85
50302;BME280;36550;50.472;19.744;2023-02-05T04:54:00;99749.58;;;-6.74;81.84
50302;BME280;36550;50.472;19.744;2023-02-05T04:56:44;99749.55;;;-6.57;82.71
50302;BME280;36550;50.472;19.744;2023-02-05T04:59:29;99746.88;;;-6.42;83.29
50302;BME280;36550;50.472;19.744;2023-02-05T05:02:14;99745.86;;;-6.30;83.37
50302;BME280;36550;50.472;19.744;2023-02-05T05:04:58;99752.39;;;-6.18;83.53
50302;BME280;36550;50.472;19.744;2023-02-05T05:07:42;99755.79;;;-6.09;83.51
50302;BME280;36550;50.472;19.744;2023-02-05T05:10:26;99761.62;;;-6.00;83.52
50302;BME280;36550;50.472;19.744;2023-02-05T05:13:10;99770.29;;;-5.91;83.53
50302;BME280;36550;50.472;19.744;2023-02-05T05:15:54;99776.21;;;-5.84;83.46
50302;BME280;36550;50.472;19.744;2023-02-05T05:18:39;99781.33;;;-5.75;83.59
50302;BME280;36550;50.472;19.744;2023-02-05T05:21:23;99785.28;;;-5.64;83.90
50302;BME280;36550;50.472;19.744;2023-02-05T05:24:06;99792.33;;;-5.53;84.26
50302;BME280;36550;50.472;19.744;2023-02-05T05:26:50;99798.09;;;-5.46;84.08
50302;BME280;36550;50.472;19.744;2023-02-05T05:29:34;99797.21;;;-5.40;84.11
50302;BME280;36550;50.472;19.744;2023-02-05T05:32:18;99796.05;;;-5.38;83.86
50302;BME280;36550;50.472;19.744;2023-02-05T05:35:02;99795.08;;;-5.29;84.24
50302;BME280;36550;50.472;19.744;2023-02-05T05:37:46;99798.85;;;-5.24;84.33
50302;BME280;36550;50.472;19.744;2023-02-05T05:40:30;99801.44;;;-5.18;84.35
50302;BME280;36550;50.472;19.744;2023-02-05T05:43:33;99804.11;;;-5.11;84.64
50302;BME280;36550;50.472;19.744;2023-02-05T05:46:29;99808.18;;;-5.08;84.51
50302;BME280;36550;50.472;19.744;2023-02-05T05:49:13;99810.21;;;-5.08;84.33
50302;BME280;36550;50.472;19.744;2023-02-05T05:51:57;99813.66;;;-5.08;84.23
50302;BME280;36550;50.472;19.744;2023-02-05T05:54:41;99811.14;;;-5.09;84.08
50302;BME280;36550;50.472;19.744;2023-02-05T05:57:24;99814.98;;;-5.10;84.18
50302;BME280;36550;50.472;19.744;2023-02-05T06:00:09;99818.75;;;-5.14;84.14
50302;BME280;36550;50.472;19.744;2023-02-05T06:02:53;99820.45;;;-5.13;84.30
50302;BME280;36550;50.472;19.744;2023-02-05T06:05:37;99823.84;;;-5.13;84.34
50302;BME280;36550;50.472;19.744;2023-02-05T06:08:21;99827.63;;;-5.11;84.42
50302;BME280;36550;50.472;19.744;2023-02-05T06:11:04;99836.92;;;-5.06;84.70
50302;BME280;36550;50.472;19.744;2023-02-05T06:13:49;99842.27;;;-5.01;84.69
50302;BME280;36550;50.472;19.744;2023-02-05T06:16:33;99849.36;;;-5.03;84.49
50302;BME280;36550;50.472;19.744;2023-02-05T06:19:17;99850.38;;;-5.09;84.29
50302;BME280;36550;50.472;19.744;2023-02-05T06:22:01;99850.11;;;-5.07;84.42
50302;BME280;36550;50.472;19.744;2023-02-05T06:24:46;99855.95;;;-5.02;84.55
50302;BME280;36550;50.472;19.744;2023-02-05T06:27:30;99859.23;;;-5.03;84.42
50302;BME280;36550;50.472;19.744;2023-02-05T06:30:14;99859.60;;;-5.03;84.32
50302;BME280;36550;50.472;19.744;2023-02-05T06:32:57;99860.17;;;-5.04;84.13
50302;BME280;36550;50.472;19.744;2023-02-05T06:35:41;99860.59;;;-5.02;84.23
50302;BME280;36550;50.472;19.744;2023-02-05T06:38:25;99860.08;;;-4.99;84.31
50302;BME280;36550;50.472;19.744;2023-02-05T06:41:09;99857.46;;;-4.93;84.57
50302;BME280;36550;50.472;19.744;2023-02-05T06:43:53;99855.21;;;-4.92;84.15
50302;BME280;36550;50.472;19.744;2023-02-05T06:46:37;99850.50;;;-4.88;84.12
50302;BME280;36550;50.472;19.744;2023-02-05T06:49:21;99851.11;;;-4.80;84.10
50302;BME280;36550;50.472;19.744;2023-02-05T06:52:05;99851.02;;;-4.73;83.94
50302;BME280;36550;50.472;19.744;2023-02-05T06:54:49;99850.36;;;-4.62;84.19
50302;BME280;36550;50.472;19.744;2023-02-05T06:57:33;99854.44;;;-4.53;83.89
50302;BME280;36550;50.472;19.744;2023-02-05T07:00:17;99858.30;;;-4.43;83.76
50302;BME280;36550;50.472;19.744;2023-02-05T07:03:00;99858.41;;;-4.37;83.42
50302;BME280;36550;50.472;19.744;2023-02-05T07:05:44;99856.15;;;-4.28;83.50
50302;BME280;36550;50.472;19.744;2023-02-05T07:08:28;99858.29;;;-4.23;83.12
50302;BME280;36550;50.472;19.744;2023-02-05T07:11:12;99861.48;;;-4.22;82.65
50302;BME280;36550;50.472;19.744;2023-02-05T07:13:59;99864.70;;;-4.25;82.04
50302;BME280;36550;50.472;19.744;2023-02-05T07:16:43;99867.02;;;-4.27;81.87
50302;BME280;36550;50.472;19.744;2023-02-05T07:19:27;99868.10;;;-4.25;81.94
50302;BME280;36550;50.472;19.744;2023-02-05T07:22:12;99872.16;;;-4.18;82.30
50302;BME280;36550;50.472;19.744;2023-02-05T07:24:56;99874.73;;;-4.13;82.21
50302;BME280;36550;50.472;19.744;2023-02-05T07:27:40;99880.52;;;-4.04;82.12
50302;BME280;36550;50.472;19.744;2023-02-05T07:30:24;99885.59;;;-4.00;81.82
50302;BME280;36550;50.472;19.744;2023-02-05T07:33:08;99884.49;;;-3.94;81.68
50302;BME280;36550;50.472;19.744;2023-02-05T07:35:53;99885.72;;;-3.86;81.99
50302;BME280;36550;50.472;19.744;2023-02-05T07:38:37;99885.41;;;-3.81;81.43
50302;BME280;36550;50.472;19.744;2023-02-05T07:41:21;99890.13;;;-3.69;81.60
50302;BME280;36550;50.472;19.744;2023-02-05T07:44:05;99894.98;;;-3.59;81.45
50302;BME280;36550;50.472;19.744;2023-02-05T07:46:49;99897.80;;;-3.49;81.31
50302;BME280;36550;50.472;19.744;2023-02-05T07:49:33;99904.65;;;-3.39;81.01
50302;BME280;36550;50.472;19.744;2023-02-05T07:52:17;99908.95;;;-3.31;80.71
50302;BME280;36550;50.472;19.744;2023-02-05T07:55:01;99913.20;;;-3.22;80.69
50302;BME280;36550;50.472;19.744;2023-02-05T07:57:44;99912.02;;;-3.20;80.56
50302;BME280;36550;50.472;19.744;2023-02-05T08:00:29;99915.82;;;-3.23;80.21
50302;BME280;36550;50.472;19.744;2023-02-05T08:03:13;99916.20;;;-3.21;80.88
50302;BME280;36550;50.472;19.744;2023-02-05T08:05:57;99912.48;;;-3.17;80.55
50302;BME280;36550;50.472;19.744;2023-02-05T08:08:41;99910.81;;;-3.10;79.92
50302;BME280;36550;50.472;19.744;2023-02-05T08:11:25;99909.02;;;-3.00;79.77
50302;BME280;36550;50.472;19.744;2023-02-05T08:14:09;99905.67;;;-2.88;80.29
50302;BME280;36550;50.472;19.744;2023-02-05T08:16:53;99911.11;;;-2.85;79.59
50302;BME280;36550;50.472;19.744;2023-02-05T08:19:37;99911.61;;;-2.77;79.31
50302;BME280;36550;50.472;19.744;2023-02-05T08:22:21;99921.46;;;-2.68;78.83
50302;BME280;36550;50.472;19.744;2023-02-05T08:25:05;99928.44;;;-2.62;79.25
50302;BME280;36550;50.472;19.744;2023-02-05T08:27:49;99937.38;;;-2.70;78.46
50302;BME280;36550;50.472;19.744;2023-02-05T08:30:33;99938.63;;;-2.68;78.66
50302;BME280;36550;50.472;19.744;2023-02-05T08:33:17;99947.70;;;-2.60;78.51
50302;BME280;36550;50.472;19.744;2023-02-05T08:36:01;99947.30;;;-2.70;77.37
50302;BME280;36550;50.472;19.744;2023-02-05T08:38:45;99956.23;;;-2.83;76.67
50302;BME280;36550;50.472;19.744;2023-02-05T08:41:29;99965.35;;;-2.92;77.67
50302;BME280;36550;50.472;19.744;2023-02-05T08:44:13;99969.92;;;-2.99;77.69
50302;BME280;36550;50.472;19.744;2023-02-05T08:46:57;99969.42;;;-3.04;78.01
50302;BME280;36550;50.472;19.744;2023-02-05T08:49:41;99969.67;;;-3.06;78.65
50302;BME280;36550;50.472;19.744;2023-02-05T08:52:25;99967.41;;;-3.03;79.27
50302;BME280;36550;50.472;19.744;2023-02-05T08:55:09;99968.73;;;-3.02;78.00
50302;BME280;36550;50.472;19.744;2023-02-05T08:57:53;99975.73;;;-2.99;78.39
50302;BME280;36550;50.472;19.744;2023-02-05T09:00:38;99978.65;;;-3.07;77.75
50302;BME280;36550;50.472;19.744;2023-02-05T09:03:22;99982.73;;;-3.17;77.70
50302;BME280;36550;50.472;19.744;2023-02-05T09:06:07;99984.16;;;-3.26;78.17
50302;BME280;36550;50.472;19.744;2023-02-05T09:08:51;99984.73;;;-3.27;78.71
50302;BME280;36550;50.472;19.744;2023-02-05T09:11:35;99977.40;;;-3.39;78.66
50302;BME280;36550;50.472;19.744;2023-02-05T09:14:19;99981.22;;;-3.53;77.44
50302;BME280;36550;50.472;19.744;2023-02-05T09:17:03;99985.98;;;-3.53;77.77
50302;BME280;36550;50.472;19.744;2023-02-05T09:19:47;99985.58;;;-3.57;78.09
50302;BME280;36550;50.472;19.744;2023-02-05T09:22:31;99990.86;;;-3.69;76.83
50302;BME280;36550;50.472;19.744;2023-02-05T09:25:15;99992.05;;;-3.74;77.03
50302;BME280;36550;50.472;19.744;2023-02-05T09:28:00;100002.52;;;-3.77;76.71
50302;BME280;36550;50.472;19.744;2023-02-05T09:30:44;100002.63;;;-3.82;76.13
50302;BME280;36550;50.472;19.744;2023-02-05T09:33:28;100000.56;;;-3.82;76.49
50302;BME280;36550;50.472;19.744;2023-02-05T09:36:13;100006.26;;;-3.80;76.49
50302;BME280;36550;50.472;19.744;2023-02-05T09:38:57;99996.51;;;-3.69;76.69
50302;BME280;36550;50.472;19.744;2023-02-05T09:47:33;100003.83;;;-3.57;75.08
50302;BME280;36550;50.472;19.744;2023-02-05T09:50:21;100001.83;;;-3.41;75.50
50302;BME280;36550;50.472;19.744;2023-02-05T09:53:11;100007.38;;;-3.25;74.36
50302;BME280;36550;50.472;19.744;2023-02-05T09:55:56;100004.71;;;-3.21;73.47
50302;BME280;36550;50.472;19.744;2023-02-05T09:58:41;100000.02;;;-3.25;73.14
50302;BME280;36550;50.472;19.744;2023-02-05T10:04:17;99994.57;;;-3.24;72.76
50302;BME280;36550;50.472;19.744;2023-02-05T10:07:05;99990.35;;;-2.95;73.54
50302;BME280;36550;50.472;19.744;2023-02-05T10:27:38;99985.84;;;-1.85;71.51
50302;BME280;36550;50.472;19.744;2023-02-05T10:30:35;99990.48;;;-1.83;70.54
50302;BME280;36550;50.472;19.744;2023-02-05T10:33:45;99991.09;;;-1.92;69.49
50302;BME280;36550;50.472;19.744;2023-02-05T10:36:27;99987.16;;;-2.02;69.70
50302;BME280;36550;50.472;19.744;2023-02-05T10:39:12;99985.76;;;-1.97;69.95
50302;BME280;36550;50.472;19.744;2023-02-05T10:44:45;99988.94;;;-1.53;71.13
50302;BME280;36550;50.472;19.744;2023-02-05T10:47:39;99984.16;;;-1.20;71.42
50302;BME280;36550;50.472;19.744;2023-02-05T10:50:26;99984.97;;;-0.92;70.42
50302;BME280;36550;50.472;19.744;2023-02-05T10:53:14;99980.94;;;-0.82;69.92
50302;BME280;36550;50.472;19.744;2023-02-05T10:56:00;99980.73;;;-0.72;69.49
50302;BME280;36550;50.472;19.744;2023-02-05T10:58:53;99983.92;;;-0.75;67.62
50302;BME280;36550;50.472;19.744;2023-02-05T11:01:37;99986.55;;;-0.72;68.02
50302;BME280;36550;50.472;19.744;2023-02-05T11:04:25;99984.48;;;-0.74;67.04
50302;BME280;36550;50.472;19.744;2023-02-05T11:07:15;99978.38;;;-0.77;66.55
50302;BME280;36550;50.472;19.744;2023-02-05T11:10:12;99972.48;;;-0.77;66.98
50302;BME280;36550;50.472;19.744;2023-02-05T11:16:01;99960.23;;;-0.73;65.82
50302;BME280;36550;50.472;19.744;2023-02-05T11:18:46;99959.88;;;-0.57;66.45
50302;BME280;36550;50.472;19.744;2023-02-05T11:21:48;99958.13;;;-0.41;67.11
50302;BME280;36550;50.472;19.744;2023-02-05T11:24:36;99955.66;;;-0.37;66.17
50302;BME280;36550;50.472;19.744;2023-02-05T11:27:26;99952.38;;;-0.21;67.15
50302;BME280;36550;50.472;19.744;2023-02-05T11:38:50;99927.95;;;0.03;64.27
50302;BME280;36550;50.472;19.744;2023-02-05T11:41:35;99933.01;;;0.09;64.71
50302;BME280;36550;50.472;19.744;2023-02-05T11:44:35;99936.10;;;0.09;64.16
50302;BME280;36550;50.472;19.744;2023-02-05T11:47:29;99941.27;;;-0.04;62.80
50302;BME280;36550;50.472;19.744;2023-02-05T11:50:19;99944.08;;;-0.19;62.57
50302;BME280;36550;50.472;19.744;2023-02-05T11:53:06;99939.58;;;-0.18;63.66
50302;BME280;36550;50.472;19.744;2023-02-05T11:55:52;99936.28;;;-0.29;62.26
50302;BME280;36550;50.472;19.744;2023-02-05T11:58:38;99929.49;;;-0.40;62.43
50302;BME280;36550;50.472;19.744;2023-02-05T12:01:22;99932.04;;;-0.50;62.12
50302;BME280;36550;50.472;19.744;2023-02-05T12:06:55;99932.83;;;-0.70;62.36
50302;BME280;36550;50.472;19.744;2023-02-05T12:09:40;99930.69;;;-0.85;61.73
50302;BME280;36550;50.472;19.744;2023-02-05T12:12:48;99932.89;;;-0.97;61.73
50302;BME280;36550;50.472;19.744;2023-02-05T12:16:16;99929.80;;;-0.85;63.39
50302;BME280;36550;50.472;19.744;2023-02-05T12:33:53;99926.17;;;-0.55;65.20
50302;BME280;36550;50.472;19.744;2023-02-05T12:45:23;99926.98;;;-0.34;64.96
50302;BME280;36550;50.472;19.744;2023-02-05T12:48:30;99928.84;;;-0.24;65.32
50302;BME280;36550;50.472;19.744;2023-02-05T12:51:26;99929.17;;;-0.31;65.01
50302;BME280;36550;50.472;19.744;2023-02-05T12:54:26;99930.41;;;-0.33;65.27
50302;BME280;36550;50.472;19.744;2023-02-05T12:57:15;99929.17;;;-0.42;64.71
50302;BME280;36550;50.472;19.744;2023-02-05T13:00:46;99927.11;;;-0.51;63.93
50302;BME280;36550;50.472;19.744;2023-02-05T13:06:11;99924.65;;;-0.74;63.74
50302;BME280;36550;50.472;19.744;2023-02-05T13:09:14;99927.80;;;-1.03;63.72
50302;BME280;36550;50.472;19.744;2023-02-05T13:12:02;99925.73;;;-1.26;64.19
50302;BME280;36550;50.472;19.744;2023-02-05T13:20:35;99923.45;;;-1.59;65.84
50302;BME280;36550;50.472;19.744;2023-02-05T13:23:39;99921.00;;;-1.44;66.42
50302;BME280;36550;50.472;19.744;2023-02-05T13:26:43;99923.39;;;-1.32;66.26
50302;BME280;36550;50.472;19.744;2023-02-05T13:29:47;99924.13;;;-1.35;66.13
50302;BME280;36550;50.472;19.744;2023-02-05T13:32:33;99919.98;;;-1.39;66.39
50302;BME280;36550;50.472;19.744;2023-02-05T13:35:19;99916.80;;;-1.50;66.63
50302;BME280;36550;50.472;19.744;2023-02-05T13:55:47;99920.05;;;-1.55;68.28
50302;BME280;36550;50.472;19.744;2023-02-05T13:58:42;99922.67;;;-1.60;68.25
50302;BME280;36550;50.472;19.744;2023-02-05T14:01:28;99926.70;;;-1.59;68.25
50302;BME280;36550;50.472;19.744;2023-02-05T14:07:05;99930.02;;;-1.67;68.52
50302;BME280;36550;50.472;19.744;2023-02-05T14:09:54;99930.65;;;-1.71;68.73
50302;BME280;36550;50.472;19.744;2023-02-05T14:12:39;99935.20;;;-1.80;68.77
50302;BME280;36550;50.472;19.744;2023-02-05T14:15:24;99930.23;;;-1.85;69.10
50302;BME280;36550;50.472;19.744;2023-02-05T14:27:19;99931.91;;;-1.99;69.98
50302;BME280;36550;50.472;19.744;2023-02-05T14:33:29;99937.86;;;-2.11;70.24
50302;BME280;36550;50.472;19.744;2023-02-05T14:39:02;99940.08;;;-2.08;70.56
50302;BME280;36550;50.472;19.744;2023-02-05T14:41:48;99935.97;;;-2.11;70.70
50302;BME280;36550;50.472;19.744;2023-02-05T14:44:35;99939.77;;;-2.14;70.88
50302;BME280;36550;50.472;19.744;2023-02-05T14:47:21;99941.34;;;-2.22;71.16
50302;BME280;36550;50.472;19.744;2023-02-05T14:50:29;99945.67;;;-2.30;71.32
50302;BME280;36550;50.472;19.744;2023-02-05T14:53:20;99943.08;;;-2.40;71.62
50302;BME280;36550;50.472;19.744;2023-02-05T14:56:20;99938.61;;;-2.50;71.94
50302;BME280;36550;50.472;19.744;2023-02-05T14:59:16;99948.69;;;-2.52;72.38
50302;BME280;36550;50.472;19.744;2023-02-05T15:02:02;99951.54;;;-2.56;72.61
50302;BME280;36550;50.472;19.744;2023-02-05T15:04:47;99954.60;;;-2.63;72.70
50302;BME280;36550;50.472;19.744;2023-02-05T15:07:33;99951.98;;;-2.71;72.93
50302;BME280;36550;50.472;19.744;2023-02-05T15:10:19;99948.86;;;-2.81;72.98
50302;BME280;36550;50.472;19.744;2023-02-05T15:13:25;99947.70;;;-2.84;73.06
50302;BME280;36550;50.472;19.744;2023-02-05T15:18:58;99944.60;;;-2.86;73.37
50302;BME280;36550;50.472;19.744;2023-02-05T15:21:47;99939.20;;;-2.93;73.41
50302;BME280;36550;50.472;19.744;2023-02-05T15:24:33;99940.71;;;-3.00;73.62
50302;BME280;36550;50.472;19.744;2023-02-05T15:27:20;99941.42;;;-3.08;73.88
50302;BME280;36550;50.472;19.744;2023-02-05T15:30:06;99939.84;;;-3.11;74.27
50302;BME280;36550;50.472;19.744;2023-02-05T15:32:52;99946.00;;;-3.16;74.37
50302;BME280;36550;50.472;19.744;2023-02-05T15:35:41;99947.84;;;-3.23;74.52
50302;BME280;36550;50.472;19.744;2023-02-05T15:41:09;99953.09;;;-3.33;74.92
50302;BME280;36550;50.472;19.744;2023-02-05T15:43:57;99953.36;;;-3.38;75.10
50302;BME280;36550;50.472;19.744;2023-02-05T15:46:42;99959.79;;;-3.39;75.35
50302;BME280;36550;50.472;19.744;2023-02-05T15:49:37;99962.00;;;-3.39;75.64
50302;BME280;36550;50.472;19.744;2023-02-05T15:55:14;99969.02;;;-3.42;75.71
50302;BME280;36550;50.472;19.744;2023-02-05T15:58:03;99967.48;;;-3.39;75.62
50302;BME280;36550;50.472;19.744;2023-02-05T16:00:48;99970.58;;;-3.36;75.59
50302;BME280;36550;50.472;19.744;2023-02-05T16:03:35;99970.70;;;-3.36;75.63
50302;BME280;36550;50.472;19.744;2023-02-05T16:06:22;99970.10;;;-3.35;75.65
50302;BME280;36550;50.472;19.744;2023-02-05T16:09:21;99960.35;;;-3.35;75.69
50302;BME280;36550;50.472;19.744;2023-02-05T16:12:11;99958.48;;;-3.38;75.83
50302;BME280;36550;50.472;19.744;2023-02-05T16:14:56;99958.43;;;-3.39;75.98
50302;BME280;36550;50.472;19.744;2023-02-05T16:17:41;99959.04;;;-3.43;75.93
50302;BME280;36550;50.472;19.744;2023-02-05T16:20:29;99963.23;;;-3.48;76.01
50302;BME280;36550;50.472;19.744;2023-02-05T16:26:06;99964.66;;;-3.57;76.09
50302;BME280;36550;50.472;19.744;2023-02-05T16:31:37;99973.64;;;-3.63;76.32
50302;BME280;36550;50.472;19.744;2023-02-05T16:34:21;99980.83;;;-3.67;76.34
50302;BME280;36550;50.472;19.744;2023-02-05T16:37:11;99980.84;;;-3.67;76.11
50302;BME280;36550;50.472;19.744;2023-02-05T16:39:57;99982.02;;;-3.67;76.14
50302;BME280;36550;50.472;19.744;2023-02-05T16:42:42;99986.30;;;-3.67;76.17
50302;BME280;36550;50.472;19.744;2023-02-05T16:45:27;99988.91;;;-3.67;76.18
50302;BME280;36550;50.472;19.744;2023-02-05T16:48:19;99990.33;;;-3.68;76.34
50302;BME280;36550;50.472;19.744;2023-02-05T16:51:04;99997.08;;;-3.70;76.56
50302;BME280;36550;50.472;19.744;2023-02-05T16:53:48;99991.10;;;-3.73;76.56
50302;BME280;36550;50.472;19.744;2023-02-05T16:56:32;99997.60;;;-3.78;76.54
50302;BME280;36550;50.472;19.744;2023-02-05T16:59:20;100008.81;;;-3.80;76.74
50302;BME280;36550;50.472;19.744;2023-02-05T17:02:05;100011.40;;;-3.83;76.77